메인 페이지
METAR-TAF:

METAR-TAF

공항 :

로스토프나도누, 러시아

위도: 47-29-38N, 경도: 039-55-29E, 고도: 65m

현재 날씨관측

예보는 39분 전, 15:00시(UTC)에 발표되었습니다.
8kt
온도 16°C
습도 82%
기압 1015 hPa
시정 10km 이상
구름 조금

METAR: URRP 241500Z 26004MPS 9999 FEW/// 16/13 Q1015 R23/CLRD70 TEMPO 2000 BR SCT005 SCT020CB RMK QFE753/1004

시각: 19:39 (15:39 UTC)

예보

예보는 1 시간 42분 전, 13:57시(UTC)에 발표되었습니다.
예보 대상 시간: 24일 15시부터 25일 15시까지 (UTC)
6kt, 순간 최대 풍속 21kt
시정: 6000m
고도 1600ft 상공 구름 보통
고도 3000ft 상공 구름 보통, 적란운.
일시적
24일 18시부터 25일 09시까지 (UTC)
남서6kt, 순간 최대 풍속 19kt
고도 1600ft 상공 구름 많음
고도 2000ft 상공 구름 보통, 적란운.
약한소나기
확률 40% :
일시적
24일 18시부터 25일 09시까지 (UTC)
시정: 0300m
고도 100ft 상공 구름 많음
고도 2000ft 상공 구름 보통, 적란운.
안개
전환 중
25일 09시부터 25일 11시까지 (UTC)
6kt, 순간 최대 풍속 21kt
시정 10km 이상

TAF: URRP 241357Z 2415/2515 26003G11MPS 6000 SCT016 SCT030CB TEMPO 2418/2509 23003G10MPS -SHRA BKN016 SCT020CB PROB40 TEMPO 2418/2509 0300 FG BKN001 SCT020CB BECMG 2509/2511 28003G11MPS 9999 NSW

4,000개 이상의 공항 관측 자료 및 예보 (METAR 및 TAF 보고).

지도상에서 검색 가능한 기상관측소가 노란 점과 빨간 점으로 표시되어 있습니다.

기상관측소 명을 보려면 표시 위로 마우스를 이동하세요.

날씨 관측과 예보를 보려면 클릭하세요.

지도 변경 : 확대하려면 엑스 표시가 있는 녹색 버튼, 축소하려면 빼기 표시가 있는 녹색 버튼, 다음 페이지의 지도를 보려면 녹색 화살표를 클릭하세요.


METAR-TAF: